Time;durP1;ratioP1;P1;durP2;ratioP2;P2;SDS_P1;SDS_P2;PMS_P1;PMS_P2;Temp;Humidity;BMP_temperature;BMP_pressure;BME280_temperature;BME280_humidity;BME280_pressure;Samples;Min_cycle;Max_cycle;Signal;HPM_P1;HPM_P2
2021/01/12 00:00:12;;;;;;;;;;;;;;;;;;2079307;28;7138;-67
2021/01/12 00:01:14;;;;;;;;;;;;;;;;;;2079755;28;7116;-65
2021/01/12 00:02:20;;;;;;;;;;;;;;;;;;2079553;28;7017;-64
2021/01/12 00:03:22;;;;;;;;;;;;;;;;;;2079156;28;7116;-64
2021/01/12 00:04:24;;;;;;;;;;;;;;;;;;2079281;28;7045;-63
2021/01/12 00:05:26;;;;;;;;;;;;;;;;;;2078065;28;7038;-64
2021/01/12 00:06:28;;;;;;;;;;;;;;;;;;2071170;28;7009;-64
2021/01/12 00:07:30;;;;;;;;;;;;;;;;;;2070459;28;7112;-66
2021/01/12 00:08:33;;;;;;;;;;;;;;;;;;2070924;28;8035;-65
2021/01/12 00:09:35;;;;;;;;;;;;;;;;;;2070939;28;7096;-62
2021/01/12 00:10:37;;;;;;;;;;;;;;;;;;2070712;28;7021;-65
2021/01/12 00:11:39;;;;;;;;;;;;;;;;;;2071233;28;8046;-66
2021/01/12 00:12:40;;;;;;;;;;;;;;;;;;2070882;28;7049;-65
2021/01/12 00:13:42;;;;;;;;;;;;;;;;;;2071570;28;7155;-63
2021/01/12 00:14:45;;;;;;;;;;;;;;;;;;2071462;28;7096;-64
2021/01/12 00:15:47;;;;;;;;;;;;;;;;;;2071488;28;7092;-63
2021/01/12 00:16:50;;;;;;;;;;;;;;;;;;2070896;28;7092;-66
2021/01/12 00:17:52;;;;;;;;;;;;;;;;;;2070962;28;8043;-65
2021/01/12 00:18:55;;;;;;;;;;;;;;;;;;2071418;28;7092;-65
2021/01/12 00:19:57;;;;;;;;;;;;;;;;;;2071238;28;8035;-66
2021/01/12 00:20:59;;;;;;;;;;;;;;;;;;2072001;28;7057;-64
2021/01/12 00:22:02;;;;;;;;;;;;;;;;;;2079027;28;7121;-63
2021/01/12 00:23:04;;;;;;;;;;;;;;;;;;2079105;28;7372;-63
2021/01/12 00:24:06;;;;;;;;;;;;;;;;;;2069952;28;7130;-66
2021/01/12 00:25:09;;;;;;;;;;;;;;;;;;2079155;28;7209;-63
2021/01/12 00:26:27;;;;;;;;;;;;;;;;;;2078887;28;7336;-63
2021/01/12 00:27:29;;;;;;;;;;;;;;;;;;2078685;28;7009;-66
2021/01/12 00:28:31;;;;;;;;;;;;;;;;;;2078428;28;8063;-64
2021/01/12 00:29:34;;;;;;;;;;;;;;;;;;2079241;28;7009;-63
2021/01/12 00:30:36;;;;;;;;;;;;;;;;;;2078660;28;7017;-63
2021/01/12 00:31:38;;;;;;;;;;;;;;;;;;2078741;28;7046;-65
2021/01/12 00:32:40;;;;;;;;;;;;;;;;;;2078864;28;8054;-62
2021/01/12 00:33:42;;;;;;;;;;;;;;;;;;2071047;28;7113;-66
2021/01/12 00:34:45;;;;;;;;;;;;;;;;;;2071520;28;8005;-64
2021/01/12 00:35:47;;;;;;;;;;;;;;;;;;2071614;28;7088;-64
2021/01/12 00:36:50;;;;;;;;;;;;;;;;;;2070654;28;7013;-65
2021/01/12 00:37:52;;;;;;;;;;;;;;;;;;2070705;28;7013;-64
2021/01/12 00:38:56;;;;;;;;;;;;;;;;;;2069649;28;7101;-65
2021/01/12 00:39:58;;;;;;;;;;;;;;;;;;2070784;28;7117;-66
2021/01/12 00:41:04;;;;;;;;;;;;;;;;;;2070557;28;7109;-66
2021/01/12 00:42:07;;;;;;;;;;;;;;;;;;2070492;28;8008;-64
2021/01/12 00:43:09;;;;;;;;;;;;;;;;;;2071056;28;7017;-64
2021/01/12 00:44:11;;;;;;;;;;;;;;;;;;2071491;28;7061;-66
2021/01/12 00:45:13;;;;;;;;;;;;;;;;;;2071426;28;7081;-65
2021/01/12 00:46:15;;;;;;;;;;;;;;;;;;2069756;28;7017;-63
2021/01/12 00:47:17;;;;;;;;;;;;;;;;;;2078039;28;8041;-65
2021/01/12 00:48:19;;;;;;;;;;;;;;;;;;2083546;28;7148;-63
2021/01/12 00:49:23;;;;;;;;;;;;;;;;;;2078800;28;7096;-66
2021/01/12 00:50:25;;;;;;;;;;;;;;;;;;2078912;28;7123;-65
2021/01/12 00:51:37;;;;;;;;;;;;;;;;;;2079287;28;8066;-63
2021/01/12 00:52:38;;;;;;;;;;;;;;;;;;2079090;28;7013;-66
2021/01/12 00:53:40;;;;;;;;;;;;;;;;;;2079110;28;8043;-65
2021/01/12 00:54:50;;;;;;;;;;;;;;;;;;2079371;28;8039;-66
2021/01/12 00:55:52;;;;;;;;;;;;;;;;;;2094719;28;8066;-64
2021/01/12 00:56:54;;;;;;;;;;;;;;;;;;2094700;28;7049;-63
2021/01/12 00:57:56;;;;;;;;;;;;;;;;;;2070891;28;8041;-66
2021/01/12 00:58:58;;;;;;;;;;;;;;;;;;2069419;28;7017;-67
2021/01/12 01:00:00;;;;;;;;;;;;;;;;;;2070490;28;8111;-63
2021/01/12 01:01:02;;;;;;;;;;;;;;;;;;2068957;28;7013;-65
2021/01/12 01:02:05;;;;;;;;;;;;;;;;;;2070401;28;7551;-63
2021/01/12 01:03:07;;;;;;;;;;;;;;;;;;2070376;28;8099;-64
2021/01/12 01:04:09;;;;;;;;;;;;;;;;;;2070792;28;7009;-64
2021/01/12 01:05:12;;;;;;;;;;;;;;;;;;2074158;28;7009;-66
2021/01/12 01:06:14;;;;;;;;;;;;;;;;;;2078287;28;7002;-64
2021/01/12 01:07:17;;;;;;;;;;;;;;;;;;2078768;28;7013;-65
2021/01/12 01:08:18;;;;;;;;;;;;;;;;;;2078486;28;7009;-63
2021/01/12 01:09:21;;;;;;;;;;;;;;;;;;2079231;28;7009;-64
2021/01/12 01:10:23;;;;;;;;;;;;;;;;;;2078465;28;7069;-65
2021/01/12 01:11:25;;;;;;;;;;;;;;;;;;2078889;28;7088;-63
2021/01/12 01:12:27;;;;;;;;;;;;;;;;;;2078414;28;7013;-64
2021/01/12 01:13:29;;;;;;;;;;;;;;;;;;2078637;28;7005;-64
2021/01/12 01:14:30;;;;;;;;;;;;;;;;;;2078485;28;7224;-64
2021/01/12 01:15:32;;;;;;;;;;;;;;;;;;2078427;28;7089;-65
2021/01/12 01:16:35;;;;;;;;;;;;;;;;;;2094143;28;7139;-63
2021/01/12 01:17:37;;;;;;;;;;;;;;;;;;2085996;28;7049;-64
2021/01/12 01:18:39;;;;;;;;;;;;;;;;;;2071208;28;7104;-66
2021/01/12 01:19:41;;;;;;;;;;;;;;;;;;2069727;28;8119;-63
2021/01/12 01:20:43;;;;;;;;;;;;;;;;;;2078433;28;7135;-63
2021/01/12 01:21:48;;;;;;;;;;;;;;;;;;2071820;28;7088;-64
2021/01/12 01:22:50;;;;;;;;;;;;;;;;;;2070549;28;7109;-64
2021/01/12 01:23:52;;;;;;;;;;;;;;;;;;2071094;28;7005;-63
2021/01/12 01:24:55;;;;;;;;;;;;;;;;;;2071124;28;8066;-65
2021/01/12 01:25:57;;;;;;;;;;;;;;;;;;2070856;28;7292;-65
2021/01/12 01:26:59;;;;;;;;;;;;;;;;;;2070866;28;7130;-64
2021/01/12 01:28:01;;;;;;;;;;;;;;;;;;2078972;28;7152;-65
2021/01/12 01:29:03;;;;;;;;;;;;;;;;;;2078581;28;7195;-64
2021/01/12 01:30:06;;;;;;;;;;;;;;;;;;2094729;28;7953;-63
2021/01/12 01:31:07;;;;;;;;;;;;;;;;;;2093504;28;8193;-64
2021/01/12 01:32:10;;;;;;;;;;;;;;;;;;2078858;28;7120;-63
2021/01/12 01:33:12;;;;;;;;;;;;;;;;;;2078203;28;7499;-65
2021/01/12 01:34:14;;;;;;;;;;;;;;;;;;2078084;28;7021;-63
2021/01/12 01:35:17;;;;;;;;;;;;;;;;;;2076218;28;7009;-66
2021/01/12 01:36:30;;;;;;;;;;;;;;;;;;2070913;28;7009;-66
2021/01/12 01:37:35;;;;;;;;;;;;;;;;;;2070190;28;7368;-65
2021/01/12 01:38:38;;;;;;;;;;;;;;;;;;2070522;28;8082;-65
2021/01/12 01:39:40;;;;;;;;;;;;;;;;;;2070216;28;7046;-62
2021/01/12 01:40:43;;;;;;;;;;;;;;;;;;2070554;28;7013;-64
2021/01/12 01:41:45;;;;;;;;;;;;;;;;;;2071107;28;7029;-64
2021/01/12 01:42:47;;;;;;;;;;;;;;;;;;2071088;28;7092;-63
2021/01/12 01:43:49;;;;;;;;;;;;;;;;;;2070362;28;8080;-64
2021/01/12 01:44:51;;;;;;;;;;;;;;;;;;2070387;28;7088;-63
2021/01/12 01:45:53;;;;;;;;;;;;;;;;;;2070234;28;7009;-63
2021/01/12 01:46:56;;;;;;;;;;;;;;;;;;2070252;28;7157;-64
2021/01/12 01:48:01;;;;;;;;;;;;;;;;;;2070255;28;7037;-66
2021/01/12 01:49:03;;;;;;;;;;;;;;;;;;2070020;28;7002;-62
2021/01/12 01:50:05;;;;;;;;;;;;;;;;;;2069953;28;7009;-64
2021/01/12 01:51:07;;;;;;;;;;;;;;;;;;2070612;28;7328;-66
2021/01/12 01:52:11;;;;;;;;;;;;;;;;;;2070184;28;7109;-66
2021/01/12 01:53:13;;;;;;;;;;;;;;;;;;2070317;28;8048;-64
2021/01/12 01:54:15;;;;;;;;;;;;;;;;;;2070117;28;7030;-64
2021/01/12 01:55:18;;;;;;;;;;;;;;;;;;2070922;28;7092;-64
2021/01/12 01:56:25;;;;;;;;;;;;;;;;;;2070441;28;7109;-65
2021/01/12 01:57:27;;;;;;;;;;;;;;;;;;2072855;28;7336;-62
2021/01/12 01:58:29;;;;;;;;;;;;;;;;;;2078759;28;7104;-66
2021/01/12 01:59:31;;;;;;;;;;;;;;;;;;2078734;28;7013;-64
2021/01/12 02:00:33;;;;;;;;;;;;;;;;;;2078593;28;7005;-65
2021/01/12 02:01:36;;;;;;;;;;;;;;;;;;2078229;28;7096;-64
2021/01/12 02:02:48;;;;;;;;;;;;;;;;;;2077978;28;7013;-65
2021/01/12 02:04:02;;;;;;;;;;;;;;;;;;2078544;28;7009;-64
2021/01/12 02:05:09;;;;;;;;;;;;;;;;;;2078366;28;7089;-65
2021/01/12 02:06:16;;;;;;;;;;;;;;;;;;2078471;28;7009;-63
2021/01/12 02:07:20;;;;;;;;;;;;;;;;;;2078573;28;8034;-64
2021/01/12 02:08:29;;;;;;;;;;;;;;;;;;2078456;28;7045;-63
2021/01/12 02:09:53;;;;;;;;;;;;;;;;;;2069819;28;7046;-65
2021/01/12 02:10:59;;;;;;;;;;;;;;;;;;2070397;28;7732;-65
2021/01/12 02:12:04;;;;;;;;;;;;;;;;;;2070155;28;7129;-64
2021/01/12 02:13:11;;;;;;;;;;;;;;;;;;2070078;28;7990;-64
2021/01/12 02:14:17;;;;;;;;;;;;;;;;;;2070251;28;7306;-65
2021/01/12 02:15:19;;;;;;;;;;;;;;;;;;2070122;28;9365;-63
2021/01/12 02:16:23;;;;;;;;;;;;;;;;;;2070420;28;7171;-63
2021/01/12 02:17:29;;;;;;;;;;;;;;;;;;2070626;28;7054;-64
2021/01/12 02:18:33;;;;;;;;;;;;;;;;;;2070579;28;8126;-64
2021/01/12 02:19:38;;;;;;;;;;;;;;;;;;2070463;28;7212;-63
2021/01/12 02:20:41;;;;;;;;;;;;;;;;;;2070366;28;7054;-64
2021/01/12 02:21:47;;;;;;;;;;;;;;;;;;2076528;28;7132;-64
2021/01/12 02:23:07;;;;;;;;;;;;;;;;;;2078685;28;7018;-65
2021/01/12 02:24:10;;;;;;;;;;;;;;;;;;2078861;28;7100;-63
2021/01/12 02:25:14;;;;;;;;;;;;;;;;;;2078332;28;7089;-63
2021/01/12 02:26:17;;;;;;;;;;;;;;;;;;2072065;28;7096;-65
2021/01/12 02:27:23;;;;;;;;;;;;;;;;;;2070124;28;7062;-62
2021/01/12 02:28:25;;;;;;;;;;;;;;;;;;2070563;28;7026;-67
2021/01/12 02:29:27;;;;;;;;;;;;;;;;;;2069590;28;7138;-64
2021/01/12 02:30:29;;;;;;;;;;;;;;;;;;2070909;28;7101;-64
2021/01/12 02:31:32;;;;;;;;;;;;;;;;;;2069558;28;7093;-66
2021/01/12 02:32:34;;;;;;;;;;;;;;;;;;2070561;28;7073;-65
2021/01/12 02:33:38;;;;;;;;;;;;;;;;;;2070009;28;7045;-65
2021/01/12 02:34:43;;;;;;;;;;;;;;;;;;2069359;28;7009;-64
2021/01/12 02:35:47;;;;;;;;;;;;;;;;;;2070341;28;7030;-65
2021/01/12 02:36:51;;;;;;;;;;;;;;;;;;2069536;28;8047;-63
2021/01/12 02:37:55;;;;;;;;;;;;;;;;;;2069983;28;7049;-62
2021/01/12 02:39:00;;;;;;;;;;;;;;;;;;2070173;28;7046;-66
2021/01/12 02:40:03;;;;;;;;;;;;;;;;;;2070258;28;7029;-63
2021/01/12 02:41:09;;;;;;;;;;;;;;;;;;2070212;28;7142;-63
2021/01/12 02:42:15;;;;;;;;;;;;;;;;;;2070330;28;7050;-65
2021/01/12 02:43:18;;;;;;;;;;;;;;;;;;2070066;28;7025;-63
2021/01/12 02:44:23;;;;;;;;;;;;;;;;;;2070268;28;7088;-63
2021/01/12 02:45:26;;;;;;;;;;;;;;;;;;2070625;28;7150;-63
2021/01/12 02:46:29;;;;;;;;;;;;;;;;;;2070342;28;7089;-65
2021/01/12 02:47:31;;;;;;;;;;;;;;;;;;2070436;28;7116;-65
2021/01/12 02:48:34;;;;;;;;;;;;;;;;;;2070123;28;7384;-64
2021/01/12 02:49:35;;;;;;;;;;;;;;;;;;2070108;28;7010;-67
2021/01/12 02:50:37;;;;;;;;;;;;;;;;;;2070072;28;7026;-63
2021/01/12 02:51:39;;;;;;;;;;;;;;;;;;2070260;28;7033;-66
2021/01/12 02:52:42;;;;;;;;;;;;;;;;;;2070649;28;7088;-65
2021/01/12 02:53:44;;;;;;;;;;;;;;;;;;2070411;28;8063;-64
2021/01/12 02:54:46;;;;;;;;;;;;;;;;;;2069129;28;8035;-64
2021/01/12 02:55:48;;;;;;;;;;;;;;;;;;2070218;28;7013;-65
2021/01/12 02:56:50;;;;;;;;;;;;;;;;;;2070465;28;7014;-63
2021/01/12 02:57:52;;;;;;;;;;;;;;;;;;2068795;28;7093;-64
2021/01/12 02:58:54;;;;;;;;;;;;;;;;;;2069755;28;7403;-63
2021/01/12 02:59:56;;;;;;;;;;;;;;;;;;2070535;28;7092;-64
2021/01/12 03:00:57;;;;;;;;;;;;;;;;;;2071004;28;7010;-63
2021/01/12 03:01:59;;;;;;;;;;;;;;;;;;2071570;28;8039;-63
2021/01/12 03:03:02;;;;;;;;;;;;;;;;;;2071449;28;7092;-65
2021/01/12 03:04:04;;;;;;;;;;;;;;;;;;2079160;28;8033;-65
2021/01/12 03:05:07;;;;;;;;;;;;;;;;;;2078558;28;7081;-66
2021/01/12 03:06:09;;;;;;;;;;;;;;;;;;2071512;28;8056;-64
2021/01/12 03:07:11;;;;;;;;;;;;;;;;;;2071352;28;7113;-66
2021/01/12 03:08:14;;;;;;;;;;;;;;;;;;2071386;28;7005;-64
2021/01/12 03:09:16;;;;;;;;;;;;;;;;;;2071865;28;7009;-62
2021/01/12 03:10:17;;;;;;;;;;;;;;;;;;2071256;28;7089;-64
2021/01/12 03:11:19;;;;;;;;;;;;;;;;;;2071818;28;7283;-63
2021/01/12 03:12:21;;;;;;;;;;;;;;;;;;2071381;28;7235;-66
2021/01/12 03:13:23;;;;;;;;;;;;;;;;;;2071750;28;7009;-65
2021/01/12 03:14:26;;;;;;;;;;;;;;;;;;2071035;28;7344;-65
2021/01/12 03:15:28;;;;;;;;;;;;;;;;;;2071839;28;8020;-63
2021/01/12 03:16:33;;;;;;;;;;;;;;;;;;2071277;28;8044;-64
2021/01/12 03:17:36;;;;;;;;;;;;;;;;;;2070536;28;7021;-63
2021/01/12 03:18:38;;;;;;;;;;;;;;;;;;2072159;28;7013;-63
2021/01/12 03:19:41;;;;;;;;;;;;;;;;;;2070385;28;7137;-66
2021/01/12 03:20:43;;;;;;;;;;;;;;;;;;2070446;28;7021;-63
2021/01/12 03:21:45;;;;;;;;;;;;;;;;;;2076692;28;7089;-63
2021/01/12 03:22:46;;;;;;;;;;;;;;;;;;2079519;28;7062;-65
2021/01/12 03:23:48;;;;;;;;;;;;;;;;;;2079021;28;7093;-63
2021/01/12 03:24:50;;;;;;;;;;;;;;;;;;2079038;28;7046;-65
2021/01/12 03:25:52;;;;;;;;;;;;;;;;;;2079068;28;7320;-64
2021/01/12 03:26:54;;;;;;;;;;;;;;;;;;2079082;28;7009;-64
2021/01/12 03:27:56;;;;;;;;;;;;;;;;;;2079271;28;7046;-63
2021/01/12 03:28:58;;;;;;;;;;;;;;;;;;2079716;28;8127;-65
2021/01/12 03:30:01;;;;;;;;;;;;;;;;;;2079585;28;7009;-65
2021/01/12 03:31:03;;;;;;;;;;;;;;;;;;2079581;28;7038;-65
2021/01/12 03:32:05;;;;;;;;;;;;;;;;;;2079794;28;7108;-65
2021/01/12 03:33:07;;;;;;;;;;;;;;;;;;2079753;28;8032;-64
2021/01/12 03:34:09;;;;;;;;;;;;;;;;;;2070465;28;8100;-63
2021/01/12 03:35:11;;;;;;;;;;;;;;;;;;2070670;28;7117;-64
2021/01/12 03:36:13;;;;;;;;;;;;;;;;;;2070007;28;7084;-66
2021/01/12 03:37:15;;;;;;;;;;;;;;;;;;2071110;28;7005;-63
2021/01/12 03:38:17;;;;;;;;;;;;;;;;;;2071068;28;7262;-63
2021/01/12 03:39:19;;;;;;;;;;;;;;;;;;2071303;28;7009;-64
2021/01/12 03:40:21;;;;;;;;;;;;;;;;;;2071058;28;7952;-64
2021/01/12 03:41:23;;;;;;;;;;;;;;;;;;2071397;28;8027;-65
2021/01/12 03:42:25;;;;;;;;;;;;;;;;;;2070984;28;7045;-63
2021/01/12 03:43:27;;;;;;;;;;;;;;;;;;2071697;28;7136;-65
2021/01/12 03:44:28;;;;;;;;;;;;;;;;;;2071407;28;9007;-65
2021/01/12 03:45:30;;;;;;;;;;;;;;;;;;2070579;28;7005;-64
2021/01/12 03:46:33;;;;;;;;;;;;;;;;;;2071399;28;7009;-63
2021/01/12 03:47:35;;;;;;;;;;;;;;;;;;2071610;28;7040;-64
2021/01/12 03:48:37;;;;;;;;;;;;;;;;;;2071604;28;7013;-65
2021/01/12 03:49:39;;;;;;;;;;;;;;;;;;2071073;28;7010;-63
2021/01/12 03:50:41;;;;;;;;;;;;;;;;;;2071392;28;8028;-65
2021/01/12 03:51:43;;;;;;;;;;;;;;;;;;2070817;28;8516;-63
2021/01/12 03:52:45;;;;;;;;;;;;;;;;;;2071178;28;8384;-64
2021/01/12 03:53:47;;;;;;;;;;;;;;;;;;2070973;28;7109;-66
2021/01/12 03:54:49;;;;;;;;;;;;;;;;;;2071401;28;7104;-64
2021/01/12 03:55:51;;;;;;;;;;;;;;;;;;2071501;28;8137;-66
2021/01/12 03:56:53;;;;;;;;;;;;;;;;;;2071876;28;7962;-64
2021/01/12 03:57:55;;;;;;;;;;;;;;;;;;2071878;28;7050;-65
2021/01/12 03:58:57;;;;;;;;;;;;;;;;;;2071233;28;7017;-64
2021/01/12 03:59:59;;;;;;;;;;;;;;;;;;2070424;28;7017;-66
2021/01/12 04:01:01;;;;;;;;;;;;;;;;;;2071071;28;7113;-62
2021/01/12 04:02:03;;;;;;;;;;;;;;;;;;2070827;28;7013;-64
2021/01/12 04:03:06;;;;;;;;;;;;;;;;;;2070940;28;7198;-65
2021/01/12 04:04:08;;;;;;;;;;;;;;;;;;2071349;28;7096;-65
2021/01/12 04:05:11;;;;;;;;;;;;;;;;;;2071192;28;7112;-64
2021/01/12 04:06:15;;;;;;;;;;;;;;;;;;2071041;28;7009;-63
2021/01/12 04:07:17;;;;;;;;;;;;;;;;;;2070806;28;7010;-65
2021/01/12 04:08:19;;;;;;;;;;;;;;;;;;2071090;28;7030;-65
2021/01/12 04:09:21;;;;;;;;;;;;;;;;;;2070728;28;8047;-65
2021/01/12 04:10:23;;;;;;;;;;;;;;;;;;2070788;28;7113;-64
2021/01/12 04:11:24;;;;;;;;;;;;;;;;;;2071436;28;7041;-64
2021/01/12 04:12:26;;;;;;;;;;;;;;;;;;2072039;28;8046;-64
2021/01/12 04:13:28;;;;;;;;;;;;;;;;;;2069970;28;7116;-64
2021/01/12 04:14:30;;;;;;;;;;;;;;;;;;2079227;28;7739;-63
2021/01/12 04:15:32;;;;;;;;;;;;;;;;;;2086080;28;7006;-63
2021/01/12 04:16:34;;;;;;;;;;;;;;;;;;2086379;28;7009;-64
2021/01/12 04:17:36;;;;;;;;;;;;;;;;;;2079254;28;7009;-65
2021/01/12 04:18:38;;;;;;;;;;;;;;;;;;2079148;28;7038;-64
2021/01/12 04:19:40;;;;;;;;;;;;;;;;;;2086161;28;7017;-65
2021/01/12 04:20:42;;;;;;;;;;;;;;;;;;2086370;28;7327;-64
2021/01/12 04:21:44;;;;;;;;;;;;;;;;;;2072008;28;8030;-65
2021/01/12 04:22:46;;;;;;;;;;;;;;;;;;2078835;28;7120;-64
2021/01/12 04:23:47;;;;;;;;;;;;;;;;;;2078098;28;7005;-67
2021/01/12 04:24:49;;;;;;;;;;;;;;;;;;2071679;28;7013;-64
2021/01/12 04:25:51;;;;;;;;;;;;;;;;;;2070595;28;8105;-63
2021/01/12 04:26:53;;;;;;;;;;;;;;;;;;2079419;28;7041;-63
2021/01/12 04:27:55;;;;;;;;;;;;;;;;;;2079078;28;7005;-65
2021/01/12 04:28:57;;;;;;;;;;;;;;;;;;2079176;28;7091;-65
2021/01/12 04:29:59;;;;;;;;;;;;;;;;;;2079740;28;7005;-65
2021/01/12 04:31:01;;;;;;;;;;;;;;;;;;2078931;28;7046;-63
2021/01/12 04:32:03;;;;;;;;;;;;;;;;;;2079181;28;7013;-65
2021/01/12 04:33:06;;;;;;;;;;;;;;;;;;2079001;28;7013;-65
2021/01/12 04:34:08;;;;;;;;;;;;;;;;;;2078927;28;7046;-64
2021/01/12 04:35:10;;;;;;;;;;;;;;;;;;2070539;28;7013;-64
2021/01/12 04:36:12;;;;;;;;;;;;;;;;;;2071253;28;7092;-65
2021/01/12 04:37:14;;;;;;;;;;;;;;;;;;2071221;28;7124;-63
2021/01/12 04:38:16;;;;;;;;;;;;;;;;;;2070851;28;7092;-64
2021/01/12 04:39:18;;;;;;;;;;;;;;;;;;2071492;28;7021;-65
2021/01/12 04:40:20;;;;;;;;;;;;;;;;;;2071101;28;7116;-64
2021/01/12 04:41:22;;;;;;;;;;;;;;;;;;2070587;28;7042;-64
2021/01/12 04:42:31;;;;;;;;;;;;;;;;;;2070557;28;7009;-63
2021/01/12 04:43:33;;;;;;;;;;;;;;;;;;2071574;28;7218;-63
2021/01/12 04:44:36;;;;;;;;;;;;;;;;;;2070947;28;7013;-64
2021/01/12 04:45:38;;;;;;;;;;;;;;;;;;2071266;28;7097;-66
2021/01/12 04:46:40;;;;;;;;;;;;;;;;;;2071647;28;7013;-64
2021/01/12 04:47:43;;;;;;;;;;;;;;;;;;2071401;28;7093;-65
2021/01/12 04:48:48;;;;;;;;;;;;;;;;;;2069475;28;7177;-64
2021/01/12 04:49:49;;;;;;;;;;;;;;;;;;2071248;28;7134;-65
2021/01/12 04:51:08;;;;;;;;;;;;;;;;;;2070585;28;7025;-63
2021/01/12 04:52:10;;;;;;;;;;;;;;;;;;2070666;28;7037;-65
2021/01/12 04:53:12;;;;;;;;;;;;;;;;;;2071271;28;7009;-62
2021/01/12 04:54:13;;;;;;;;;;;;;;;;;;2078952;28;7036;-64
2021/01/12 04:55:19;;;;;;;;;;;;;;;;;;2069884;28;7100;-65
2021/01/12 04:56:22;;;;;;;;;;;;;;;;;;2070527;28;7129;-64
2021/01/12 04:57:24;;;;;;;;;;;;;;;;;;2070474;28;7360;-63
2021/01/12 04:58:35;;;;;;;;;;;;;;;;;;2070868;28;7045;-64
2021/01/12 04:59:38;;;;;;;;;;;;;;;;;;2070456;28;7088;-63
2021/01/12 05:00:40;;;;;;;;;;;;;;;;;;2069793;28;7017;-65
2021/01/12 05:01:42;;;;;;;;;;;;;;;;;;2069827;28;7017;-64
2021/01/12 05:03:00;;;;;;;;;;;;;;;;;;2071412;28;8051;-63
2021/01/12 05:04:05;;;;;;;;;;;;;;;;;;2070771;28;7010;-65
2021/01/12 05:05:07;;;;;;;;;;;;;;;;;;2070534;28;7092;-65
2021/01/12 05:06:10;;;;;;;;;;;;;;;;;;2070209;28;7077;-65
2021/01/12 05:07:12;;;;;;;;;;;;;;;;;;2071423;28;7042;-63
2021/01/12 05:08:17;;;;;;;;;;;;;;;;;;2071268;28;7013;-65
2021/01/12 05:09:21;;;;;;;;;;;;;;;;;;2070584;28;7009;-64
2021/01/12 05:10:22;;;;;;;;;;;;;;;;;;2070272;28;7096;-63
2021/01/12 05:11:30;;;;;;;;;;;;;;;;;;2070421;28;7009;-63
2021/01/12 05:12:32;;;;;;;;;;;;;;;;;;2070853;28;7105;-64
2021/01/12 05:13:35;;;;;;;;;;;;;;;;;;2070672;28;7372;-62
2021/01/12 05:14:38;;;;;;;;;;;;;;;;;;2070222;28;7132;-66
2021/01/12 05:15:40;;;;;;;;;;;;;;;;;;2069890;28;7037;-64
2021/01/12 05:16:47;;;;;;;;;;;;;;;;;;2078945;28;7089;-66
2021/01/12 05:17:49;;;;;;;;;;;;;;;;;;2079124;28;7320;-65
2021/01/12 05:18:52;;;;;;;;;;;;;;;;;;2078593;28;8038;-65
2021/01/12 05:19:56;;;;;;;;;;;;;;;;;;2078916;28;7045;-63
2021/01/12 05:21:02;;;;;;;;;;;;;;;;;;2070460;28;7009;-66
2021/01/12 05:22:06;;;;;;;;;;;;;;;;;;2078839;28;7045;-65
2021/01/12 05:23:09;;;;;;;;;;;;;;;;;;2077936;28;7041;-65
2021/01/12 05:24:11;;;;;;;;;;;;;;;;;;2074617;28;7137;-64
2021/01/12 05:25:20;;;;;;;;;;;;;;;;;;2070882;28;7084;-65
2021/01/12 05:26:23;;;;;;;;;;;;;;;;;;2070328;28;7105;-66
2021/01/12 05:27:25;;;;;;;;;;;;;;;;;;2070501;28;7041;-63
2021/01/12 05:28:28;;;;;;;;;;;;;;;;;;2070615;28;7109;-65
2021/01/12 05:29:32;;;;;;;;;;;;;;;;;;2071000;28;7046;-64
2021/01/12 05:30:35;;;;;;;;;;;;;;;;;;2070838;28;8114;-63
2021/01/12 05:31:37;;;;;;;;;;;;;;;;;;2070287;28;7109;-65
2021/01/12 05:32:42;;;;;;;;;;;;;;;;;;2070710;28;7326;-65
2021/01/12 05:33:44;;;;;;;;;;;;;;;;;;2070256;28;7155;-65
2021/01/12 05:34:46;;;;;;;;;;;;;;;;;;2070632;28;7021;-64
2021/01/12 05:35:49;;;;;;;;;;;;;;;;;;2070595;28;7046;-63
2021/01/12 05:36:52;;;;;;;;;;;;;;;;;;2070189;28;7049;-64
2021/01/12 05:38:01;;;;;;;;;;;;;;;;;;2070136;28;7089;-63
2021/01/12 05:39:03;;;;;;;;;;;;;;;;;;2070408;28;7005;-64
2021/01/12 05:40:07;;;;;;;;;;;;;;;;;;2070484;28;8115;-63
2021/01/12 05:41:10;;;;;;;;;;;;;;;;;;2069653;28;8111;-65
2021/01/12 05:42:12;;;;;;;;;;;;;;;;;;2071344;28;7021;-64
2021/01/12 05:43:14;;;;;;;;;;;;;;;;;;2069766;28;7121;-65
2021/01/12 05:44:20;;;;;;;;;;;;;;;;;;2068961;28;7010;-65
2021/01/12 05:45:32;;;;;;;;;;;;;;;;;;2071034;28;7360;-64
2021/01/12 05:46:34;;;;;;;;;;;;;;;;;;2078749;28;7284;-63
2021/01/12 05:47:36;;;;;;;;;;;;;;;;;;2068878;28;7025;-63
2021/01/12 05:48:39;;;;;;;;;;;;;;;;;;2074516;28;7139;-63
2021/01/12 05:49:45;;;;;;;;;;;;;;;;;;2078511;28;7044;-64
2021/01/12 05:50:48;;;;;;;;;;;;;;;;;;2071492;28;7161;-65
2021/01/12 05:51:51;;;;;;;;;;;;;;;;;;2071155;28;7046;-64
2021/01/12 05:52:59;;;;;;;;;;;;;;;;;;2070938;28;7098;-66
2021/01/12 05:54:03;;;;;;;;;;;;;;;;;;2070239;28;7092;-64
2021/01/12 05:55:08;;;;;;;;;;;;;;;;;;2070866;28;7017;-64
2021/01/12 05:56:12;;;;;;;;;;;;;;;;;;2070266;28;7145;-65
2021/01/12 05:57:22;;;;;;;;;;;;;;;;;;2070959;28;7096;-66
2021/01/12 05:58:31;;;;;;;;;;;;;;;;;;2070142;28;7088;-64
2021/01/12 05:59:37;;;;;;;;;;;;;;;;;;2069450;28;7017;-64
2021/01/12 06:00:41;;;;;;;;;;;;;;;;;;2070198;28;7017;-66
2021/01/12 06:01:49;;;;;;;;;;;;;;;;;;2070175;28;7100;-64
2021/01/12 06:02:57;;;;;;;;;;;;;;;;;;2070628;28;7113;-63
2021/01/12 06:04:04;;;;;;;;;;;;;;;;;;2070133;28;7009;-64
2021/01/12 06:05:07;;;;;;;;;;;;;;;;;;2070828;28;7042;-63
2021/01/12 06:06:09;;;;;;;;;;;;;;;;;;2070632;28;7292;-64
2021/01/12 06:07:11;;;;;;;;;;;;;;;;;;2070602;28;7433;-65
2021/01/12 06:08:14;;;;;;;;;;;;;;;;;;2070543;28;7134;-62
2021/01/12 06:09:17;;;;;;;;;;;;;;;;;;2070364;28;8025;-63
2021/01/12 06:10:20;;;;;;;;;;;;;;;;;;2077551;28;7981;-65
2021/01/12 06:11:27;;;;;;;;;;;;;;;;;;2077674;28;7009;-63
2021/01/12 06:12:30;;;;;;;;;;;;;;;;;;2078772;28;7077;-65
2021/01/12 06:13:34;;;;;;;;;;;;;;;;;;2069570;28;7014;-63
2021/01/12 06:14:37;;;;;;;;;;;;;;;;;;2070608;28;7389;-65
2021/01/12 06:15:40;;;;;;;;;;;;;;;;;;2070831;28;7005;-63
2021/01/12 06:16:46;;;;;;;;;;;;;;;;;;2069626;28;7021;-63
2021/01/12 06:17:49;;;;;;;;;;;;;;;;;;2070386;28;7312;-64
2021/01/12 06:19:05;;;;;;;;;;;;;;;;;;2069934;28;7093;-66
2021/01/12 06:20:14;;;;;;;;;;;;;;;;;;2070197;28;7093;-66
2021/01/12 06:21:17;;;;;;;;;;;;;;;;;;2073835;28;7053;-63
2021/01/12 06:22:23;;;;;;;;;;;;;;;;;;2078823;28;7066;-65
2021/01/12 06:23:40;;;;;;;;;;;;;;;;;;2078829;28;7029;-66
2021/01/12 06:25:03;;;;;;;;;;;;;;;;;;2078089;28;8114;-63
2021/01/12 06:26:06;;;;;;;;;;;;;;;;;;2078652;28;7145;-65
2021/01/12 06:27:11;;;;;;;;;;;;;;;;;;2071917;28;7400;-63
2021/01/12 06:28:13;;;;;;;;;;;;;;;;;;2069599;28;7092;-65
2021/01/12 06:29:17;;;;;;;;;;;;;;;;;;2070526;28;8035;-64
2021/01/12 06:30:19;;;;;;;;;;;;;;;;;;2070714;28;7017;-65
2021/01/12 06:31:21;;;;;;;;;;;;;;;;;;2069008;28;7009;-64
2021/01/12 06:32:25;;;;;;;;;;;;;;;;;;2074120;28;7010;-64
2021/01/12 06:33:28;;;;;;;;;;;;;;;;;;2077923;28;7117;-64
2021/01/12 06:34:31;;;;;;;;;;;;;;;;;;2073819;28;7092;-65
2021/01/12 06:35:37;;;;;;;;;;;;;;;;;;2078995;28;7049;-64
2021/01/12 06:36:40;;;;;;;;;;;;;;;;;;2077759;28;7092;-65
2021/01/12 06:37:43;;;;;;;;;;;;;;;;;;2071322;28;7100;-63
2021/01/12 06:38:47;;;;;;;;;;;;;;;;;;2072980;28;7017;-62
2021/01/12 06:39:51;;;;;;;;;;;;;;;;;;2080288;28;7104;-63
2021/01/12 06:40:57;;;;;;;;;;;;;;;;;;2080030;28;7096;-65
2021/01/12 06:42:04;;;;;;;;;;;;;;;;;;2079913;28;7096;-63
2021/01/12 06:43:09;;;;;;;;;;;;;;;;;;2080745;28;7045;-63
2021/01/12 06:44:20;;;;;;;;;;;;;;;;;;2080319;28;7045;-64
2021/01/12 06:45:23;;;;;;;;;;;;;;;;;;2071721;28;7345;-63
2021/01/12 06:46:25;;;;;;;;;;;;;;;;;;2071672;28;7141;-66
2021/01/12 06:47:29;;;;;;;;;;;;;;;;;;2071543;28;7222;-66
2021/01/12 06:48:41;;;;;;;;;;;;;;;;;;2071586;28;7046;-63
2021/01/12 06:49:43;;;;;;;;;;;;;;;;;;2071713;28;7010;-65
2021/01/12 06:50:46;;;;;;;;;;;;;;;;;;2071975;28;7059;-64
2021/01/12 06:51:55;;;;;;;;;;;;;;;;;;2071589;28;7100;-64
2021/01/12 06:52:58;;;;;;;;;;;;;;;;;;2072236;28;7013;-66
2021/01/12 06:54:01;;;;;;;;;;;;;;;;;;2071192;28;7013;-64
2021/01/12 06:55:08;;;;;;;;;;;;;;;;;;2072030;28;7116;-64
2021/01/12 06:56:10;;;;;;;;;;;;;;;;;;2071791;28;7391;-64
2021/01/12 06:57:16;;;;;;;;;;;;;;;;;;2071698;28;7017;-63
2021/01/12 06:58:29;;;;;;;;;;;;;;;;;;2071287;28;7468;-64
2021/01/12 06:59:32;;;;;;;;;;;;;;;;;;2071527;28;7108;-63
2021/01/12 07:00:35;;;;;;;;;;;;;;;;;;2071364;28;7010;-66
2021/01/12 07:01:38;;;;;;;;;;;;;;;;;;2072086;28;8259;-63
2021/01/12 07:02:41;;;;;;;;;;;;;;;;;;2071092;28;7096;-64
2021/01/12 07:03:44;;;;;;;;;;;;;;;;;;2071640;28;7105;-64
2021/01/12 07:04:58;;;;;;;;;;;;;;;;;;2071184;28;7092;-65
2021/01/12 07:06:03;;;;;;;;;;;;;;;;;;2071479;28;7010;-64
2021/01/12 07:07:06;;;;;;;;;;;;;;;;;;2079854;28;7123;-64
2021/01/12 07:08:09;;;;;;;;;;;;;;;;;;2079689;28;7137;-65
2021/01/12 07:09:11;;;;;;;;;;;;;;;;;;2079871;28;7009;-63
2021/01/12 07:10:16;;;;;;;;;;;;;;;;;;2079654;28;7109;-63
2021/01/12 07:11:19;;;;;;;;;;;;;;;;;;2070635;28;7088;-66
2021/01/12 07:12:22;;;;;;;;;;;;;;;;;;2072136;28;7130;-63
2021/01/12 07:13:24;;;;;;;;;;;;;;;;;;2072525;28;7136;-65
2021/01/12 07:14:26;;;;;;;;;;;;;;;;;;2072054;28;7115;-65
2021/01/12 07:15:28;;;;;;;;;;;;;;;;;;2070020;28;7013;-63
2021/01/12 07:16:30;;;;;;;;;;;;;;;;;;2072098;28;7050;-64
2021/01/12 07:17:52;;;;;;;;;;;;;;;;;;2071273;28;7006;-64
2021/01/12 07:18:58;;;;;;;;;;;;;;;;;;2071585;28;7041;-63
2021/01/12 07:20:07;;;;;;;;;;;;;;;;;;2071629;28;7224;-65
2021/01/12 07:21:13;;;;;;;;;;;;;;;;;;2074041;28;6998;-65